createdAt,value
2018-06-01T00:01:36.918Z,85.60
2018-06-01T00:04:04.427Z,85.50
2018-06-01T00:06:32.365Z,85.40
2018-06-01T00:08:59.864Z,85.30
2018-06-01T00:11:27.411Z,85.20
2018-06-01T00:13:54.913Z,85.10
2018-06-01T00:16:22.446Z,85.10
2018-06-01T00:18:49.965Z,85.10
2018-06-01T00:21:17.901Z,84.90
2018-06-01T00:23:45.405Z,84.90
2018-06-01T00:26:12.949Z,84.70
2018-06-01T00:28:40.847Z,84.80
2018-06-01T00:31:08.373Z,84.80
2018-06-01T00:33:35.873Z,84.80
2018-06-01T00:36:03.398Z,84.70
2018-06-01T00:38:30.897Z,84.70
2018-06-01T00:40:58.440Z,84.80
2018-06-01T00:43:25.942Z,84.90
2018-06-01T00:45:53.882Z,85.40
2018-06-01T00:48:21.433Z,85.40
2018-06-01T00:50:48.963Z,85.30
2018-06-01T00:53:16.478Z,85.50
2018-06-01T00:55:44.008Z,85.70
2018-06-01T00:58:11.510Z,85.70
2018-06-01T01:00:39.042Z,85.60
2018-06-01T01:03:06.553Z,85.60
2018-06-01T01:05:34.087Z,85.50
2018-06-01T01:08:01.597Z,85.60
2018-06-01T01:10:29.889Z,85.60
2018-06-01T01:12:57.413Z,85.70
2018-06-01T01:15:24.933Z,85.70
2018-06-01T01:17:52.460Z,85.60
2018-06-01T01:20:19.969Z,85.50
2018-06-01T01:22:47.507Z,85.50
2018-06-01T01:25:15.009Z,85.50
2018-06-01T01:27:42.534Z,85.50
2018-06-01T01:30:10.048Z,85.50
2018-06-01T01:32:37.577Z,85.40
2018-06-01T01:35:05.076Z,85.40
2018-06-01T01:37:32.619Z,85.60
2018-06-01T01:40:00.133Z,85.50
2018-06-01T01:42:27.697Z,85.50
2018-06-01T01:44:55.590Z,85.60
2018-06-01T01:47:23.143Z,85.60
2018-06-01T01:49:53.394Z,85.80
2018-06-01T01:52:20.926Z,85.80
2018-06-01T01:54:48.429Z,85.70
2018-06-01T01:57:15.973Z,85.80
2018-06-01T01:59:43.481Z,85.90
2018-06-01T02:02:11.014Z,85.90
2018-06-01T02:04:38.950Z,86.00
2018-06-01T02:07:06.495Z,86.00
2018-06-01T02:09:34.953Z,86.00
2018-06-01T02:12:02.460Z,86.10
2018-06-01T02:14:30.001Z,86.20
2018-06-01T02:16:57.501Z,86.20
2018-06-01T02:19:25.042Z,86.30
2018-06-01T02:21:52.945Z,86.30
2018-06-01T02:24:20.506Z,86.10
2018-06-01T02:26:48.025Z,86.10
2018-06-01T02:29:15.570Z,86.10
2018-06-01T02:31:43.122Z,86.10
2018-06-01T02:34:11.058Z,85.90
2018-06-01T02:36:38.564Z,85.90
2018-06-01T02:39:06.100Z,85.90
2018-06-01T02:41:34.001Z,85.80
2018-06-01T02:44:01.503Z,85.80
2018-06-01T02:46:29.053Z,86.20
2018-06-01T02:48:56.549Z,86.00
2018-06-01T02:51:24.090Z,85.90
2018-06-01T02:53:51.993Z,85.90
2018-06-01T02:56:19.530Z,86.00
2018-06-01T02:58:47.061Z,86.00
2018-06-01T03:01:14.585Z,86.00
2018-06-01T03:03:42.088Z,85.90
2018-06-01T03:06:09.625Z,86.00
2018-06-01T03:08:37.132Z,86.00
2018-06-01T03:11:04.669Z,85.90
2018-06-01T03:13:32.191Z,86.00
2018-06-01T03:15:59.718Z,86.10
2018-06-01T03:18:27.221Z,85.90
2018-06-01T03:20:55.166Z,86.10
2018-06-01T03:23:22.670Z,86.00
2018-06-01T03:25:50.169Z,86.00
2018-06-01T03:28:17.708Z,85.90
2018-06-01T03:30:45.213Z,85.70
2018-06-01T03:33:12.740Z,85.80
2018-06-01T03:35:40.242Z,85.50
2018-06-01T03:38:07.769Z,85.50
2018-06-01T03:40:35.273Z,85.60
2018-06-01T03:43:02.813Z,85.50
2018-06-01T03:45:30.330Z,85.40
2018-06-01T03:47:57.873Z,85.30
2018-06-01T03:50:25.379Z,85.40
2018-06-01T03:52:52.901Z,85.40
2018-06-01T03:55:20.407Z,85.20
2018-06-01T03:57:47.951Z,84.80
2018-06-01T04:00:15.457Z,84.90
2018-06-01T04:02:43.018Z,84.90
2018-06-01T04:05:10.909Z,84.60
2018-06-01T04:07:38.417Z,84.70
2018-06-01T04:10:05.958Z,84.40
2018-06-01T04:12:33.458Z,84.30
2018-06-01T04:15:01.390Z,83.80
2018-06-01T04:17:28.897Z,83.70
2018-06-01T04:19:56.429Z,83.90
2018-06-01T04:22:24.341Z,83.40
2018-06-01T04:24:51.874Z,83.10
2018-06-01T04:27:19.389Z,83.20
2018-06-01T04:29:46.917Z,83.20
2018-06-01T04:32:14.424Z,83.00
2018-06-01T04:34:41.957Z,82.90
2018-06-01T04:37:09.473Z,82.90
2018-06-01T04:39:37.021Z,83.00
2018-06-01T04:42:04.519Z,83.20
2018-06-01T04:44:32.049Z,82.90
2018-06-01T04:46:59.563Z,83.00
2018-06-01T04:49:27.095Z,83.00
2018-06-01T04:51:54.599Z,82.90
2018-06-01T04:54:22.141Z,83.10
2018-06-01T04:56:49.646Z,83.00
2018-06-01T04:59:17.160Z,83.20
2018-06-01T05:01:45.337Z,83.10
2018-06-01T05:04:12.837Z,83.30
2018-06-01T05:06:40.365Z,83.30
2018-06-01T05:09:07.883Z,83.20
2018-06-01T05:11:35.417Z,83.00
2018-06-01T05:14:03.321Z,83.30
2018-06-01T05:16:30.846Z,83.30
2018-06-01T05:18:58.345Z,83.30
2018-06-01T05:21:26.269Z,83.40
2018-06-01T05:23:54.163Z,83.50
2018-06-01T05:26:21.697Z,83.20
2018-06-01T05:28:49.211Z,83.40
2018-06-01T05:31:16.743Z,83.40
2018-06-01T05:33:44.265Z,83.80
2018-06-01T05:36:11.801Z,83.80
2018-06-01T05:38:39.699Z,83.80
2018-06-01T05:41:07.226Z,83.80
2018-06-01T05:43:34.725Z,83.70
2018-06-01T05:46:02.272Z,83.90
2018-06-01T05:48:29.829Z,83.90
2018-06-01T05:50:57.331Z,84.20
2018-06-01T05:53:24.857Z,84.40
2018-06-01T05:55:52.373Z,85.40
2018-06-01T05:58:19.907Z,86.00
2018-06-01T06:00:47.811Z,85.90
2018-06-01T06:03:15.337Z,86.50
2018-06-01T06:05:42.833Z,86.50
2018-06-01T06:08:10.361Z,86.00
2018-06-01T06:10:37.873Z,85.70
2018-06-01T06:13:05.416Z,85.60
2018-06-01T06:15:32.927Z,85.60
2018-06-01T06:18:01.377Z,85.70
2018-06-01T06:20:28.877Z,84.90
2018-06-01T06:22:56.401Z,84.50
2018-06-01T06:25:23.909Z,84.80
2018-06-01T06:27:51.412Z,85.40
2018-06-01T06:30:19.337Z,86.10
2018-06-01T06:32:46.843Z,86.50
2018-06-01T06:35:14.369Z,86.50
2018-06-01T06:37:41.926Z,86.60
2018-06-01T06:40:09.449Z,86.60
2018-06-01T06:42:36.946Z,86.50
2018-06-01T06:45:04.870Z,86.60
2018-06-01T06:47:32.373Z,86.20
2018-06-01T06:49:59.896Z,86.30
2018-06-01T06:52:27.418Z,85.90
2018-06-01T06:54:54.977Z,85.50
2018-06-01T06:57:22.474Z,84.10
2018-06-01T06:59:49.973Z,82.90
2018-06-01T07:02:17.517Z,81.60
2018-06-01T07:04:45.018Z,78.40
2018-06-01T07:07:12.569Z,78.40
2018-06-01T07:09:40.077Z,76.70
2018-06-01T07:12:08.009Z,76.10
2018-06-01T07:14:35.533Z,76.20
2018-06-01T07:17:03.079Z,74.20
2018-06-01T07:19:30.573Z,70.00
2018-06-01T07:21:58.109Z,67.40
2018-06-01T07:24:25.620Z,65.60
2018-06-01T07:26:53.182Z,67.10
2018-06-01T07:29:20.690Z,67.70
2018-06-01T07:31:48.206Z,64.90
2018-06-01T07:34:15.741Z,63.70
2018-06-01T07:36:43.640Z,66.20
2018-06-01T07:39:11.166Z,66.10
2018-06-01T07:41:38.680Z,67.50
2018-06-01T07:44:06.611Z,66.30
2018-06-01T07:46:34.121Z,66.30
2018-06-01T07:49:01.650Z,64.60
2018-06-01T07:51:29.177Z,64.30
2018-06-01T07:53:56.705Z,63.50
2018-06-01T07:56:24.602Z,60.40
2018-06-01T07:58:52.137Z,60.40
2018-06-01T08:01:19.655Z,58.50
2018-06-01T08:03:47.191Z,60.40
2018-06-01T08:06:14.710Z,60.10
2018-06-01T08:08:42.253Z,59.60
2018-06-01T08:11:09.765Z,59.10
2018-06-01T08:13:37.257Z,60.00
2018-06-01T08:16:05.181Z,62.10
2018-06-01T08:18:32.694Z,62.10
2018-06-01T08:21:00.233Z,63.00
2018-06-01T08:23:28.136Z,63.80
2018-06-01T08:25:55.657Z,63.80
2018-06-01T08:28:23.553Z,67.30
2018-06-01T08:30:51.185Z,68.40
2018-06-01T08:33:18.697Z,69.70
2018-06-01T08:35:46.321Z,68.80
2018-06-01T08:38:13.834Z,70.20
2018-06-01T08:40:41.819Z,71.00
2018-06-01T08:43:09.298Z,71.40
2018-06-01T08:45:36.839Z,71.50
2018-06-01T08:48:04.353Z,72.60
2018-06-01T08:50:31.869Z,73.10
2018-06-01T08:52:59.397Z,73.10
2018-06-01T08:55:26.895Z,72.10
2018-06-01T08:57:54.637Z,71.20
2018-06-01T09:00:22.141Z,69.00
2018-06-01T09:02:49.670Z,68.90
2018-06-01T09:05:17.169Z,69.50
2018-06-01T09:07:45.097Z,69.00
2018-06-01T09:10:12.640Z,69.00
2018-06-01T09:12:40.150Z,71.10
2018-06-01T09:15:07.650Z,71.70
2018-06-01T09:17:35.177Z,71.00
2018-06-01T09:20:02.689Z,69.70
2018-06-01T09:22:30.234Z,69.10
2018-06-01T09:24:57.756Z,69.10
2018-06-01T09:27:25.309Z,68.50
2018-06-01T09:29:52.813Z,68.50
2018-06-01T09:32:20.362Z,69.00
2018-06-01T09:34:47.877Z,70.20
2018-06-01T09:37:15.403Z,68.80
2018-06-01T09:39:43.300Z,68.80
2018-06-01T09:42:10.829Z,69.90
2018-06-01T09:44:38.333Z,65.70
2018-06-01T09:47:05.866Z,65.70
2018-06-01T09:49:33.381Z,63.40
2018-06-01T09:52:00.933Z,61.70
2018-06-01T09:54:28.453Z,64.00
2018-06-01T09:56:56.202Z,65.50
2018-06-01T09:59:23.726Z,66.90
2018-06-01T10:01:51.237Z,68.10
2018-06-01T10:04:18.770Z,69.70
2018-06-01T10:06:46.279Z,69.80
2018-06-01T10:09:14.245Z,65.20
2018-06-01T10:11:41.758Z,65.10
2018-06-01T10:14:09.281Z,60.90
2018-06-01T10:16:36.793Z,59.00
2018-06-01T10:19:04.325Z,59.20
2018-06-01T10:21:31.834Z,61.70
2018-06-01T10:23:59.361Z,63.20
2018-06-01T10:26:26.912Z,63.30
2018-06-01T10:28:54.417Z,64.70
2018-06-01T10:31:21.930Z,64.30
2018-06-01T10:33:49.473Z,64.10
2018-06-01T10:36:16.990Z,65.50
2018-06-01T10:38:44.536Z,65.10
2018-06-01T10:41:12.044Z,65.90
2018-06-01T10:43:39.577Z,67.80
2018-06-01T10:46:07.090Z,67.60
2018-06-01T10:48:34.621Z,67.10
2018-06-01T10:51:02.549Z,67.00
2018-06-01T10:53:30.077Z,66.80
2018-06-01T10:55:57.613Z,66.90
2018-06-01T10:58:25.541Z,66.70
2018-06-01T11:00:53.037Z,66.70
2018-06-01T11:03:20.565Z,67.80
2018-06-01T11:05:48.078Z,68.30
2018-06-01T11:08:15.635Z,68.90
2018-06-01T11:10:43.137Z,68.20
2018-06-01T11:13:10.649Z,67.00
2018-06-01T11:15:38.186Z,66.80
2018-06-01T11:18:05.703Z,66.60
2018-06-01T11:20:33.260Z,67.00
2018-06-01T11:23:00.757Z,67.60
2018-06-01T11:25:28.300Z,68.00
2018-06-01T11:27:55.809Z,68.10
2018-06-01T11:30:23.346Z,67.10
2018-06-01T11:32:50.875Z,68.70
2018-06-01T11:35:18.423Z,68.70
2018-06-01T11:37:45.933Z,68.80
2018-06-01T11:40:13.484Z,68.40
2018-06-01T11:42:40.992Z,68.50
2018-06-01T11:45:08.520Z,66.10
2018-06-01T11:47:36.025Z,67.40
2018-06-01T11:50:03.561Z,67.50
2018-06-01T11:52:31.080Z,68.20
2018-06-01T11:54:58.610Z,69.10
2018-06-01T11:57:26.170Z,69.70
2018-06-01T11:59:53.677Z,69.50
2018-06-01T12:02:21.569Z,69.50
2018-06-01T12:04:49.105Z,69.50
2018-06-01T12:07:16.614Z,69.10
2018-06-01T12:09:44.153Z,70.00
2018-06-01T12:12:11.657Z,68.90
2018-06-01T12:14:39.187Z,68.60
2018-06-01T12:17:06.690Z,68.30
2018-06-01T12:19:34.233Z,68.40
2018-06-01T12:22:01.745Z,69.40
2018-06-01T12:24:29.276Z,68.80
2018-06-01T12:26:56.784Z,69.40
2018-06-01T12:29:24.357Z,69.50
2018-06-01T12:31:52.245Z,69.80
2018-06-01T12:34:19.805Z,69.80
2018-06-01T12:36:47.305Z,70.00
2018-06-01T12:39:14.822Z,70.10
2018-06-01T12:41:42.357Z,69.40
2018-06-01T12:44:09.868Z,69.40
2018-06-01T12:46:37.401Z,69.10
2018-06-01T12:49:04.914Z,69.50
2018-06-01T12:51:32.441Z,69.60
2018-06-01T12:53:59.951Z,68.90
2018-06-01T12:56:27.490Z,68.10
2018-06-01T12:58:54.992Z,68.60
2018-06-01T13:01:22.521Z,69.20
2018-06-01T13:03:50.039Z,69.60
2018-06-01T13:06:17.705Z,69.50
2018-06-01T13:08:45.208Z,70.40
2018-06-01T13:11:12.748Z,69.80
2018-06-01T13:13:40.254Z,70.30
2018-06-01T13:16:07.813Z,70.30
2018-06-01T13:18:35.714Z,70.80
2018-06-01T13:21:03.266Z,70.80
2018-06-01T13:23:30.804Z,70.40
2018-06-01T13:25:58.334Z,69.90
2018-06-01T13:28:26.042Z,69.40
2018-06-01T13:30:53.582Z,69.00
2018-06-01T13:33:21.085Z,69.20
2018-06-01T13:35:48.626Z,69.10
2018-06-01T13:38:16.129Z,69.60
2018-06-01T13:40:44.050Z,69.60
2018-06-01T13:43:11.561Z,69.60
2018-06-01T13:45:39.109Z,70.10
2018-06-01T13:48:07.017Z,69.10
2018-06-01T13:50:34.551Z,68.50
2018-06-01T13:53:02.061Z,68.40
2018-06-01T13:55:29.612Z,68.30
2018-06-01T13:57:57.117Z,67.80
2018-06-01T14:00:24.629Z,68.50
2018-06-01T14:02:52.170Z,68.90
2018-06-01T14:05:19.688Z,69.50
2018-06-01T14:07:47.221Z,69.70
2018-06-01T14:10:14.718Z,69.90
2018-06-01T14:12:42.261Z,70.20
2018-06-01T14:15:09.868Z,69.80
2018-06-01T14:17:37.425Z,69.80
2018-06-01T14:20:04.946Z,68.90
2018-06-01T14:22:32.476Z,69.40
2018-06-01T14:24:59.976Z,69.60
2018-06-01T14:27:28.372Z,68.80
2018-06-01T14:29:55.873Z,68.90
2018-06-01T14:32:23.405Z,68.20
2018-06-01T14:34:50.928Z,68.40
2018-06-01T14:37:18.477Z,68.40
2018-06-01T14:39:45.981Z,67.80
2018-06-01T14:42:13.530Z,67.50
2018-06-01T14:44:41.025Z,68.30
2018-06-01T14:47:08.577Z,69.70
2018-06-01T14:49:36.089Z,69.00
2018-06-01T14:52:04.013Z,69.10
2018-06-01T14:54:31.571Z,69.10
2018-06-01T14:56:59.071Z,69.60
2018-06-01T14:59:26.565Z,68.40
2018-06-01T15:01:54.118Z,68.50
2018-06-01T15:04:21.640Z,68.10
2018-06-01T15:06:49.165Z,68.70
2018-06-01T15:09:16.668Z,68.80
2018-06-01T15:11:44.201Z,69.00
2018-06-01T15:14:12.093Z,69.60
2018-06-01T15:16:39.621Z,69.60
2018-06-01T15:19:07.120Z,69.50
2018-06-01T15:21:34.657Z,69.70
2018-06-01T15:24:02.186Z,69.80
2018-06-01T15:26:30.099Z,70.10
2018-06-01T15:28:57.625Z,70.10
2018-06-01T15:31:25.141Z,70.60
2018-06-01T15:33:52.722Z,70.30
2018-06-01T15:36:20.209Z,71.20
2018-06-01T15:38:47.755Z,70.50
2018-06-01T15:41:15.253Z,70.40
2018-06-01T15:43:42.779Z,71.10
2018-06-01T15:46:10.274Z,71.20
2018-06-01T15:48:37.818Z,71.10
2018-06-01T15:51:05.327Z,72.30
2018-06-01T15:53:32.857Z,72.00
2018-06-01T15:56:00.758Z,71.40
2018-06-01T15:58:28.331Z,71.40
2018-06-01T16:00:55.837Z,71.50
2018-06-01T16:03:23.765Z,71.60
2018-06-01T16:05:51.265Z,71.80
2018-06-01T16:08:18.925Z,72.00
2018-06-01T16:10:46.441Z,72.60
2018-06-01T16:13:13.975Z,72.50
2018-06-01T16:15:41.481Z,71.40
2018-06-01T16:18:09.418Z,72.10
2018-06-01T16:20:36.930Z,72.10
2018-06-01T16:23:04.464Z,72.10
2018-06-01T16:25:31.985Z,71.50
2018-06-01T16:27:59.522Z,71.80
2018-06-01T16:30:27.048Z,72.30
2018-06-01T16:32:54.585Z,72.30
2018-06-01T16:35:22.488Z,72.00
2018-06-01T16:37:50.017Z,72.10
2018-06-01T16:40:17.521Z,72.50
2018-06-01T16:42:45.048Z,72.30
2018-06-01T16:45:12.547Z,72.40
2018-06-01T16:47:40.101Z,72.40
2018-06-01T16:50:07.613Z,72.10
2018-06-01T16:52:35.113Z,72.00
2018-06-01T16:55:02.635Z,71.40
2018-06-01T16:57:30.133Z,71.60
2018-06-01T16:59:58.073Z,71.30
2018-06-01T17:02:25.588Z,71.30
2018-06-01T17:04:53.122Z,71.10
2018-06-01T17:07:21.038Z,71.30
2018-06-01T17:09:48.606Z,70.60
2018-06-01T17:12:16.110Z,71.20
2018-06-01T17:14:43.670Z,71.20
2018-06-01T17:17:11.183Z,71.40
2018-06-01T17:19:38.742Z,70.90
2018-06-01T17:22:06.255Z,71.60
2018-06-01T17:24:33.788Z,71.70
2018-06-01T17:27:01.309Z,71.80
2018-06-01T17:29:28.853Z,72.00
2018-06-01T17:31:56.368Z,72.10
2018-06-01T17:34:23.930Z,72.60
2018-06-01T17:36:51.433Z,72.70
2018-06-01T17:39:18.967Z,72.70
2018-06-01T17:41:46.477Z,72.90
2018-06-01T17:44:14.035Z,72.70
2018-06-01T17:46:41.538Z,72.80
2018-06-01T17:49:09.081Z,72.80
2018-06-01T17:51:36.585Z,73.00
2018-06-01T17:54:04.522Z,73.20
2018-06-01T17:56:32.039Z,73.20
2018-06-01T17:58:59.573Z,73.20
2018-06-01T18:01:27.089Z,73.40
2018-06-01T18:03:54.621Z,73.40
2018-06-01T18:06:22.117Z,73.30
2018-06-01T18:08:49.641Z,73.50
2018-06-01T18:11:17.940Z,73.30
2018-06-01T18:13:45.470Z,73.40
2018-06-01T18:16:12.969Z,73.50
2018-06-01T18:18:40.877Z,74.10
2018-06-01T18:21:08.425Z,74.10
2018-06-01T18:23:35.921Z,73.90
2018-06-01T18:26:03.449Z,74.10
2018-06-01T18:28:30.967Z,73.80
2018-06-01T18:30:58.498Z,73.70
2018-06-01T18:33:26.003Z,74.50
2018-06-01T18:35:53.528Z,74.50
2018-06-01T18:38:21.033Z,74.50
2018-06-01T18:40:48.570Z,74.40
2018-06-01T18:43:16.073Z,74.50
2018-06-01T18:45:43.598Z,74.50
2018-06-01T18:48:11.109Z,74.70
2018-06-01T18:50:39.042Z,74.90
2018-06-01T18:53:06.545Z,74.90
2018-06-01T18:55:34.093Z,75.40
2018-06-01T18:58:01.596Z,75.50
2018-06-01T19:00:29.146Z,75.60
2018-06-01T19:02:56.644Z,75.80
2018-06-01T19:05:24.572Z,76.00
2018-06-01T19:07:52.072Z,76.10
2018-06-01T19:10:20.001Z,76.20
2018-06-01T19:12:47.503Z,76.50
2018-06-01T19:15:15.054Z,76.60
2018-06-01T19:17:42.579Z,76.70
2018-06-01T19:20:10.121Z,77.00
2018-06-01T19:22:37.677Z,77.00
2018-06-01T19:25:05.203Z,77.10
2018-06-01T19:27:32.702Z,77.20
2018-06-01T19:30:00.242Z,77.20
2018-06-01T19:32:27.741Z,77.50
2018-06-01T19:34:55.277Z,77.70
2018-06-01T19:37:23.211Z,77.80
2018-06-01T19:39:50.717Z,77.80
2018-06-01T19:42:18.246Z,77.70
2018-06-01T19:44:45.747Z,78.00
2018-06-01T19:47:13.281Z,78.10
2018-06-01T19:49:41.173Z,78.10
2018-06-01T19:52:08.705Z,78.10
2018-06-01T19:54:36.198Z,78.40
2018-06-01T19:57:03.725Z,78.30
2018-06-01T19:59:31.259Z,78.50
2018-06-01T20:01:58.777Z,78.70
2018-06-01T20:04:26.302Z,78.80
2018-06-01T20:06:53.847Z,78.90
2018-06-01T20:09:21.354Z,78.80
2018-06-01T20:11:48.947Z,79.40
2018-06-01T20:14:16.838Z,79.60
2018-06-01T20:16:44.369Z,79.80
2018-06-01T20:19:12.268Z,79.90
2018-06-01T20:21:39.804Z,79.90
2018-06-01T20:24:07.310Z,79.90
2018-06-01T20:26:34.838Z,80.00
2018-06-01T20:29:02.353Z,80.00
2018-06-01T20:31:29.932Z,80.30
2018-06-01T20:33:57.801Z,80.30
2018-06-01T20:36:25.334Z,80.30
2018-06-01T20:38:52.845Z,80.20
2018-06-01T20:41:20.377Z,80.30
2018-06-01T20:43:47.897Z,80.30
2018-06-01T20:46:15.422Z,80.30
2018-06-01T20:48:42.932Z,80.20
2018-06-01T20:51:10.493Z,80.00
2018-06-01T20:53:38.054Z,80.00
2018-06-01T20:56:05.590Z,80.00
2018-06-01T20:58:33.097Z,79.90
2018-06-01T21:01:00.607Z,80.00
2018-06-01T21:03:28.137Z,79.90
2018-06-01T21:05:55.638Z,80.10
2018-06-01T21:08:23.166Z,80.10
2018-06-01T21:10:50.661Z,80.20
2018-06-01T21:13:18.192Z,80.20
2018-06-01T21:15:45.714Z,80.30
2018-06-01T21:18:13.642Z,80.40
2018-06-01T21:20:41.154Z,80.30
2018-06-01T21:23:08.693Z,80.30
2018-06-01T21:25:36.594Z,80.30
2018-06-01T21:28:04.120Z,80.40
2018-06-01T21:30:31.638Z,80.20
2018-06-01T21:32:59.200Z,80.30
2018-06-01T21:35:26.704Z,80.30
2018-06-01T21:37:54.249Z,80.20
2018-06-01T21:40:21.745Z,80.30
2018-06-01T21:42:49.301Z,80.50
2018-06-01T21:45:16.804Z,80.60
2018-06-01T21:47:44.743Z,80.80
2018-06-01T21:50:12.253Z,81.00
2018-06-01T21:52:39.781Z,81.10
2018-06-01T21:55:07.681Z,81.30
2018-06-01T21:57:35.211Z,81.30
2018-06-01T22:00:02.734Z,81.40
2018-06-01T22:02:30.268Z,81.60
2018-06-01T22:04:57.770Z,81.70
2018-06-01T22:07:25.305Z,81.70
2018-06-01T22:09:53.218Z,81.80
2018-06-01T22:12:21.145Z,81.90
2018-06-01T22:14:48.648Z,82.00
2018-06-01T22:17:16.174Z,82.00
2018-06-01T22:19:43.673Z,82.10
2018-06-01T22:22:11.212Z,82.30
2018-06-01T22:24:38.721Z,82.60
2018-06-01T22:27:06.626Z,82.70
2018-06-01T22:29:34.166Z,82.80
2018-06-01T22:32:01.666Z,82.80
2018-06-01T22:34:29.219Z,82.50
2018-06-01T22:36:56.721Z,82.40
2018-06-01T22:39:24.256Z,82.30
2018-06-01T22:41:51.768Z,81.40
2018-06-01T22:44:19.301Z,81.70
2018-06-01T22:46:46.816Z,81.60
2018-06-01T22:49:14.345Z,81.60
2018-06-01T22:51:41.849Z,81.50
2018-06-01T22:54:09.393Z,81.50
2018-06-01T22:56:37.299Z,81.50
2018-06-01T22:59:04.830Z,81.40
2018-06-01T23:01:32.454Z,81.40
2018-06-01T23:03:59.984Z,81.50
2018-06-01T23:06:27.489Z,81.60
2018-06-01T23:08:55.437Z,81.80
2018-06-01T23:11:22.946Z,81.70
2018-06-01T23:13:50.477Z,82.10
2018-06-01T23:16:18.368Z,82.30
2018-06-01T23:18:45.893Z,82.30
2018-06-01T23:21:13.394Z,82.40
2018-06-01T23:23:41.389Z,82.40
2018-06-01T23:26:08.900Z,82.60
2018-06-01T23:28:36.428Z,82.40
2018-06-01T23:31:04.335Z,82.70
2018-06-01T23:33:31.892Z,82.90
2018-06-01T23:35:59.401Z,82.80
2018-06-01T23:38:27.325Z,82.90
2018-06-01T23:40:54.826Z,82.90
2018-06-01T23:43:22.348Z,82.90
2018-06-01T23:45:49.844Z,82.90
2018-06-01T23:48:17.393Z,83.20
2018-06-01T23:50:44.889Z,83.10
2018-06-01T23:53:12.444Z,83.10
2018-06-01T23:55:39.949Z,83.10
2018-06-01T23:58:07.461Z,83.00
